createdAt,value
2023-06-23T08:36:21.421Z,19.43
2023-06-23T08:38:53.682Z,19.49
2023-06-23T08:41:35.624Z,19.50
2023-06-23T10:24:39.768Z,22.42
2023-06-23T10:27:30.214Z,23.09
2023-06-23T10:34:01.802Z,23.66
2023-06-23T10:49:27.799Z,23.70
2023-06-23T10:56:55.987Z,24.84
2023-06-23T11:00:31.843Z,24.98
2023-06-23T11:03:10.133Z,25.17
2023-06-23T11:05:43.975Z,25.15
2023-06-23T11:08:16.132Z,24.89
2023-06-23T11:11:00.917Z,24.66
2023-06-23T11:13:48.809Z,24.11
2023-06-23T11:16:34.634Z,23.82
2023-06-23T11:19:07.207Z,23.69
2023-06-23T11:21:41.961Z,23.87
2023-06-23T11:29:48.187Z,24.43
2023-06-23T11:33:20.958Z,25.89
2023-06-23T11:46:40.137Z,28.07
2023-06-23T11:49:50.723Z,26.89
2023-06-23T11:53:27.408Z,25.76
2023-06-23T11:56:13.091Z,25.44
2023-06-23T11:58:57.572Z,25.43
2023-06-23T12:01:35.648Z,25.46
2023-06-23T12:09:35.704Z,25.02
2023-06-23T12:55:10.258Z,28.17
2023-06-23T12:58:03.978Z,27.98
2023-06-23T13:00:36.319Z,28.07
2023-06-23T13:03:42.799Z,28.41
2023-06-23T13:06:15.748Z,28.53
2023-06-23T13:08:53.964Z,29.06
2023-06-23T13:11:28.245Z,30.28
2023-06-23T13:22:07.754Z,31.63
2023-06-23T13:24:41.959Z,32.27
2023-06-23T13:31:07.823Z,33.31
2023-06-23T13:34:19.968Z,33.49
2023-06-23T13:36:52.470Z,33.47
2023-06-23T13:39:57.917Z,33.14
2023-06-23T13:42:31.278Z,32.82
2023-06-23T13:45:05.245Z,32.58
2023-06-23T13:47:40.770Z,32.92
2023-06-23T13:53:19.048Z,32.42
2023-06-23T13:55:53.793Z,33.56
2023-06-23T14:11:25.977Z,35.88
2023-06-23T14:14:01.393Z,35.49
2023-06-23T14:17:22.166Z,34.51
2023-06-23T14:23:48.026Z,32.31
2023-06-23T14:45:23.462Z,29.61
2023-06-23T14:54:37.499Z,28.22
2023-06-23T14:57:10.234Z,27.86
2023-06-23T14:59:42.391Z,27.62
2023-06-23T15:02:14.684Z,27.69
2023-06-23T15:04:47.311Z,27.82
2023-06-23T15:11:15.090Z,27.23
2023-06-23T15:13:47.328Z,26.93
2023-06-23T15:16:19.428Z,26.75
2023-06-23T15:20:13.511Z,26.88
2023-06-23T15:22:45.765Z,26.89
2023-06-23T15:25:18.049Z,27.04
2023-06-23T15:27:50.467Z,26.94
2023-06-23T15:30:22.815Z,26.83
2023-06-23T15:32:55.842Z,26.81
2023-06-23T15:35:28.356Z,26.99
2023-06-23T15:38:00.688Z,27.00
2023-06-23T15:40:33.002Z,27.10
2023-06-23T15:43:05.272Z,26.94
2023-06-23T15:45:44.260Z,26.99
2023-06-23T15:48:16.638Z,27.00
2023-06-23T15:50:49.020Z,26.99
2023-06-23T15:53:22.130Z,27.08
2023-06-23T15:56:15.691Z,27.16
2023-06-23T15:59:44.923Z,27.54
2023-06-23T16:02:18.113Z,27.79
2023-06-23T16:08:51.645Z,27.37
2023-06-23T16:11:25.397Z,27.22
2023-06-23T16:13:57.633Z,26.99
2023-06-23T16:16:31.368Z,26.70
2023-06-23T16:19:03.920Z,26.50
2023-06-23T16:21:37.442Z,26.60
2023-06-23T16:24:12.773Z,26.85
2023-06-23T16:26:46.532Z,27.04
2023-06-23T16:29:21.711Z,26.84
2023-06-23T16:33:38.027Z,26.58
2023-06-23T16:36:25.233Z,26.22
2023-06-23T16:39:11.019Z,25.88
2023-06-23T16:44:52.237Z,25.73
2023-06-23T16:47:24.614Z,25.68
2023-06-23T16:49:57.544Z,25.86
2023-06-23T16:52:29.869Z,26.16
2023-06-23T16:55:03.100Z,26.13
2023-06-23T16:57:38.584Z,26.11
2023-06-23T17:01:09.070Z,26.22
2023-06-23T17:07:36.588Z,26.38
2023-06-23T17:10:41.498Z,26.62
2023-06-23T17:13:17.196Z,26.68
2023-06-23T17:15:49.344Z,26.63
2023-06-23T17:18:25.939Z,26.37
2023-06-23T17:20:58.251Z,26.07
2023-06-23T17:23:30.474Z,25.86
2023-06-23T17:26:15.441Z,25.32
2023-06-23T17:30:10.073Z,24.74
2023-06-23T17:32:43.234Z,24.11
2023-06-23T17:35:15.829Z,23.90
2023-06-23T17:37:48.263Z,23.73
2023-06-23T17:40:26.992Z,23.44
2023-06-23T17:46:22.743Z,23.22
2023-06-23T17:48:55.675Z,23.08
2023-06-23T17:52:08.565Z,23.00
2023-06-23T17:55:03.223Z,23.00
2023-06-23T17:57:35.467Z,23.06
2023-06-23T18:03:51.915Z,23.02
2023-06-23T18:06:24.515Z,23.07
2023-06-23T18:08:57.029Z,23.05
2023-06-23T18:11:29.970Z,22.94
2023-06-23T18:14:08.090Z,22.85
2023-06-23T18:16:46.790Z,22.79
2023-06-23T18:23:23.386Z,22.39
2023-06-23T18:30:24.747Z,22.06
2023-06-23T18:33:13.356Z,21.92
2023-06-23T18:35:46.041Z,21.75
2023-06-23T18:38:40.249Z,21.68
2023-06-23T18:41:12.590Z,21.67
2023-06-23T18:43:45.032Z,21.63
2023-06-23T18:50:11.188Z,21.47
2023-06-23T18:52:43.535Z,21.43
2023-06-23T18:55:15.888Z,21.19
2023-06-23T18:57:48.289Z,21.17
2023-06-23T19:00:20.690Z,20.92
2023-06-23T19:02:56.707Z,20.98
2023-06-23T19:06:14.095Z,20.91
2023-06-23T19:08:47.122Z,20.88
2023-06-23T19:12:12.299Z,20.92
2023-06-23T19:14:44.537Z,20.90
2023-06-23T19:17:18.058Z,20.92
2023-06-23T19:19:50.358Z,20.92
2023-06-23T19:22:25.873Z,20.79
2023-06-23T19:26:10.587Z,20.76
2023-06-23T19:28:43.736Z,20.61
2023-06-23T19:31:16.531Z,20.51
2023-06-23T19:33:48.740Z,20.49
2023-06-23T19:36:21.181Z,20.45
2023-06-23T19:39:15.359Z,20.41
2023-06-23T19:42:11.773Z,20.46
2023-06-23T19:44:44.028Z,20.44
2023-06-23T19:48:11.782Z,20.38
2023-06-23T19:50:46.957Z,20.32
2023-06-23T19:53:23.477Z,20.30
2023-06-23T19:55:55.819Z,20.20
2023-06-23T19:58:31.173Z,20.23
2023-06-23T20:01:03.646Z,20.23
2023-06-23T20:03:36.474Z,20.17
2023-06-23T20:06:08.913Z,20.12
2023-06-23T20:08:41.601Z,20.04
2023-06-23T20:11:15.197Z,20.02
2023-06-23T20:13:47.555Z,20.05
2023-06-23T20:16:20.188Z,19.97
2023-06-23T20:18:52.636Z,20.01
2023-06-23T20:22:07.589Z,20.07
2023-06-23T20:24:40.104Z,20.09
2023-06-23T20:27:12.739Z,20.08
2023-06-23T20:29:45.236Z,20.13
2023-06-23T20:32:17.614Z,20.10
2023-06-23T20:35:09.608Z,20.11
2023-06-23T20:37:42.189Z,19.95
2023-06-23T20:40:15.721Z,19.98
2023-06-23T20:42:48.028Z,20.02
2023-06-23T20:45:22.814Z,20.04
2023-06-23T20:48:17.206Z,19.97
2023-06-23T20:50:53.223Z,19.95
2023-06-23T20:53:25.560Z,19.91
2023-06-23T20:55:58.005Z,19.87
2023-06-23T20:58:30.213Z,19.92
2023-06-23T21:01:18.074Z,19.92
2023-06-23T21:03:50.621Z,19.92
2023-06-23T21:06:23.969Z,19.95
2023-06-23T21:08:56.438Z,19.93
2023-06-23T21:11:31.707Z,19.94
2023-06-23T21:14:04.298Z,19.97
2023-06-23T21:16:39.770Z,19.98
2023-06-23T21:19:12.073Z,20.02
2023-06-23T21:21:45.245Z,20.00
2023-06-23T21:24:18.070Z,20.08
2023-06-23T21:27:16.655Z,20.08
2023-06-23T21:29:49.118Z,20.06
2023-06-23T21:32:24.909Z,20.02
2023-06-23T21:34:57.256Z,19.99
2023-06-23T21:37:33.355Z,19.97
2023-06-23T21:40:17.821Z,19.90
2023-06-23T21:42:50.315Z,19.91
2023-06-23T21:45:25.109Z,19.88
2023-06-23T21:48:22.325Z,19.90
2023-06-23T21:50:54.786Z,19.89
2023-06-23T21:53:30.360Z,19.88
2023-06-23T21:56:05.368Z,19.82
2023-06-23T21:58:40.948Z,19.82
2023-06-23T22:01:13.589Z,19.81
2023-06-23T22:03:54.560Z,19.80
2023-06-23T22:06:29.831Z,19.75
2023-06-23T22:09:35.902Z,19.73
2023-06-23T22:13:00.218Z,19.68
2023-06-23T22:15:48.681Z,19.61
2023-06-23T22:21:45.726Z,19.61
2023-06-23T22:24:54.169Z,19.63
2023-06-23T22:28:27.251Z,19.54
2023-06-23T22:34:26.985Z,19.52
2023-06-23T22:37:20.049Z,19.58
2023-06-23T22:39:57.945Z,19.53
2023-06-23T22:42:41.258Z,19.52
2023-06-23T22:45:13.742Z,19.50
2023-06-23T22:47:53.802Z,19.44
2023-06-23T22:50:30.577Z,19.45
2023-06-23T22:53:44.151Z,19.44
2023-06-23T22:57:09.690Z,19.41
2023-06-23T22:59:43.689Z,19.42
2023-06-23T23:02:20.095Z,19.44
2023-06-23T23:04:55.724Z,19.44
2023-06-23T23:07:42.928Z,19.39
2023-06-23T23:10:25.925Z,19.38
2023-06-23T23:12:58.606Z,19.26
2023-06-23T23:15:44.113Z,19.30
2023-06-23T23:21:35.695Z,19.28
2023-06-23T23:24:22.606Z,19.26
2023-06-23T23:30:55.247Z,19.22
2023-06-23T23:40:35.523Z,18.97
2023-06-23T23:43:18.876Z,18.91
2023-06-23T23:46:25.022Z,18.93
2023-06-23T23:49:06.096Z,18.90
2023-06-23T23:55:32.595Z,18.83
2023-06-23T23:58:14.993Z,18.81
